Time;durP1;ratioP1;P1;durP2;ratioP2;P2;SDS_P1;SDS_P2;PMS_P1;PMS_P2;Temp;Humidity;BMP_temperature;BMP_pressure;BME280_temperature;BME280_humidity;BME280_pressure;Samples;Min_cycle;Max_cycle;Signal;HPM_P1;HPM_P2
2023/08/14 00:00:26;;;;;;;;;;;16.90;99.90;;;;;;6724442;88;20127;-73
2023/08/14 00:10:26;;;;;;;;;;;16.80;99.90;;;;;;6726982;88;20057;-75
2023/08/14 00:20:27;;;;;;;;;;;16.70;99.90;;;;;;6732422;88;20079;-74
2023/08/14 00:30:27;;;;;;;;;;;16.70;99.90;;;;;;6722179;88;20211;-74
2023/08/14 00:40:28;;;;;;;;;;;16.60;99.90;;;;;;6739316;88;20062;-73
2023/08/14 00:50:28;;;;;;;;;;;16.60;99.90;;;;;;6730803;88;20108;-74
2023/08/14 01:00:29;;;;;;;;;;;16.50;99.90;;;;;;6731593;88;20050;-74
2023/08/14 01:10:49;;;;;;;;;;;16.50;99.90;;;;;;6727888;88;20070;-73
2023/08/14 01:21:02;;;;;;;;;;;16.50;99.90;;;;;;6730114;87;20185;-73
2023/08/14 01:31:03;;;;;;;;;;;16.40;99.90;;;;;;6721976;88;20476;-73
2023/08/14 01:41:11;;;;;;;;;;;16.20;99.90;;;;;;6725240;88;20061;-74
2023/08/14 01:51:13;;;;;;;;;;;16.10;99.90;;;;;;6722999;88;20109;-73
2023/08/14 02:01:13;;;;;;;;;;;15.90;99.90;;;;;;6723211;88;20061;-74
2023/08/14 02:11:13;;;;;;;;;;;15.70;99.90;;;;;;6732053;88;20193;-73
2023/08/14 02:21:14;;;;;;;;;;;15.70;99.90;;;;;;6732864;88;20113;-73
2023/08/14 02:31:14;;;;;;;;;;;15.50;99.90;;;;;;6731811;88;20086;-74
2023/08/14 02:41:15;;;;;;;;;;;15.40;99.90;;;;;;6734500;88;20083;-73
2023/08/14 02:51:16;;;;;;;;;;;15.50;99.90;;;;;;6728491;88;20062;-73
2023/08/14 03:01:17;;;;;;;;;;;15.40;99.90;;;;;;6731325;88;20133;-73
2023/08/14 03:11:17;;;;;;;;;;;15.40;99.90;;;;;;6725968;88;20074;-74
2023/08/14 03:21:18;;;;;;;;;;;15.30;99.90;;;;;;6733693;88;20580;-73
2023/08/14 03:31:18;;;;;;;;;;;15.10;99.90;;;;;;6730153;88;20068;-73
2023/08/14 03:41:19;;;;;;;;;;;15.00;99.90;;;;;;6733323;88;20485;-73
2023/08/14 03:51:19;;;;;;;;;;;14.80;99.90;;;;;;6733039;87;20090;-73
2023/08/14 04:01:20;;;;;;;;;;;14.80;99.90;;;;;;6723818;88;20664;-73
2023/08/14 04:11:21;;;;;;;;;;;14.80;99.90;;;;;;6722430;88;20050;-73
2023/08/14 04:21:21;;;;;;;;;;;14.80;99.90;;;;;;6721984;88;20063;-73
2023/08/14 04:31:22;;;;;;;;;;;14.80;99.90;;;;;;6721955;88;20136;-73
2023/08/14 04:41:22;;;;;;;;;;;14.70;99.90;;;;;;6725516;88;20170;-73
2023/08/14 04:51:23;;;;;;;;;;;14.70;99.90;;;;;;6726880;88;20071;-74
2023/08/14 05:01:23;;;;;;;;;;;14.70;99.90;;;;;;6731521;88;20191;-74
2023/08/14 05:11:24;;;;;;;;;;;14.80;99.90;;;;;;6732695;88;20059;-73
2023/08/14 05:21:24;;;;;;;;;;;14.80;99.90;;;;;;6728683;88;20086;-75
2023/08/14 05:31:25;;;;;;;;;;;15.00;99.90;;;;;;6742983;88;20086;-73
2023/08/14 05:41:25;;;;;;;;;;;15.10;99.90;;;;;;6740894;88;20108;-74
2023/08/14 05:51:26;;;;;;;;;;;15.20;99.90;;;;;;6730589;88;20076;-74
2023/08/14 06:01:26;;;;;;;;;;;15.60;99.90;;;;;;6711840;85;34966;-75
2023/08/14 06:11:27;;;;;;;;;;;16.10;99.90;;;;;;6706026;88;20067;-75
2023/08/14 06:21:27;;;;;;;;;;;16.60;99.90;;;;;;6707798;88;20566;-74
2023/08/14 06:31:28;;;;;;;;;;;17.10;99.90;;;;;;6704373;88;20059;-75
2023/08/14 06:41:28;;;;;;;;;;;17.40;99.90;;;;;;6706391;88;20121;-74
2023/08/14 06:51:29;;;;;;;;;;;17.90;99.90;;;;;;6708840;88;20070;-75
2023/08/14 07:01:29;;;;;;;;;;;18.10;99.90;;;;;;6704314;88;20063;-75
2023/08/14 07:11:38;;;;;;;;;;;19.00;99.90;;;;;;6704912;88;20931;-74
2023/08/14 07:21:38;;;;;;;;;;;19.60;99.90;;;;;;6701998;88;20047;-75
2023/08/14 07:31:38;;;;;;;;;;;19.60;99.90;;;;;;6709077;88;20060;-75
2023/08/14 07:41:39;;;;;;;;;;;19.50;99.90;;;;;;6703784;88;20131;-75
2023/08/14 07:51:39;;;;;;;;;;;19.70;99.90;;;;;;6703259;88;20104;-75
2023/08/14 08:01:41;;;;;;;;;;;19.90;99.90;;;;;;6707696;88;20593;-74
2023/08/14 08:11:41;;;;;;;;;;;20.20;99.90;;;;;;6702705;88;20608;-75
2023/08/14 08:21:42;;;;;;;;;;;20.10;99.90;;;;;;6706204;88;20175;-74
2023/08/14 08:31:42;;;;;;;;;;;20.40;99.90;;;;;;6704184;88;20060;-74
2023/08/14 08:41:46;;;;;;;;;;;21.00;99.90;;;;;;6704377;88;20067;-75
2023/08/14 08:51:47;;;;;;;;;;;21.90;99.90;;;;;;6706026;88;20544;-75
2023/08/14 09:01:48;;;;;;;;;;;23.80;99.90;;;;;;6705543;88;20084;-74
2023/08/14 09:11:48;;;;;;;;;;;25.70;99.90;;;;;;6702462;88;20687;-76
2023/08/14 09:21:49;;;;;;;;;;;26.40;99.90;;;;;;6706880;88;20110;-76
2023/08/14 09:31:51;;;;;;;;;;;26.80;99.90;;;;;;6706789;88;20477;-76
2023/08/14 09:41:51;;;;;;;;;;;27.70;99.90;;;;;;6706799;88;20068;-73
2023/08/14 09:51:53;;;;;;;;;;;28.20;99.90;;;;;;6710273;88;20134;-73
2023/08/14 10:01:54;;;;;;;;;;;29.50;99.90;;;;;;6710372;77;20075;-75
2023/08/14 10:11:56;;;;;;;;;;;30.50;99.90;;;;;;6681814;88;20065;-76
2023/08/14 10:21:57;;;;;;;;;;;29.80;99.90;;;;;;6682729;88;20130;-74
2023/08/14 10:31:58;;;;;;;;;;;29.30;99.90;;;;;;6683169;88;20185;-74
2023/08/14 10:41:59;;;;;;;;;;;27.70;99.90;;;;;;6681925;88;20077;-74
2023/08/14 10:52:01;;;;;;;;;;;26.90;99.90;;;;;;6685604;88;20426;-74
2023/08/14 11:02:11;;;;;;;;;;;26.00;99.90;;;;;;6686236;88;20632;-76
2023/08/14 11:12:11;;;;;;;;;;;24.70;99.90;;;;;;6685272;88;20069;-75
2023/08/14 11:22:12;;;;;;;;;;;22.00;99.90;;;;;;6682735;88;20072;-73
2023/08/14 11:32:13;;;;;;;;;;;21.30;99.90;;;;;;6684900;88;20088;-76
2023/08/14 11:42:13;;;;;;;;;;;20.60;99.90;;;;;;6685836;88;20101;-75
2023/08/14 11:52:14;;;;;;;;;;;20.60;99.90;;;;;;6692817;88;20068;-74
2023/08/14 12:02:17;;;;;;;;;;;20.60;99.90;;;;;;6685594;88;20060;-74
2023/08/14 12:12:17;;;;;;;;;;;20.70;99.90;;;;;;6682053;88;20172;-74
2023/08/14 12:22:21;;;;;;;;;;;20.70;99.90;;;;;;6684552;88;20114;-75
2023/08/14 12:32:22;;;;;;;;;;;20.70;99.90;;;;;;6681230;88;20176;-75
2023/08/14 12:42:23;;;;;;;;;;;20.80;99.90;;;;;;6681773;88;20122;-74
2023/08/14 12:52:23;;;;;;;;;;;21.00;99.90;;;;;;6681580;88;20653;-73
2023/08/14 13:02:26;;;;;;;;;;;22.10;99.90;;;;;;6681507;88;20657;-74
2023/08/14 13:12:27;;;;;;;;;;;23.20;99.90;;;;;;6683192;88;20123;-74
2023/08/14 13:22:27;;;;;;;;;;;24.30;99.90;;;;;;6681571;88;20072;-74
2023/08/14 13:32:27;;;;;;;;;;;24.90;99.90;;;;;;6679312;88;20048;-76
2023/08/14 13:42:28;;;;;;;;;;;25.00;99.90;;;;;;6681670;88;20082;-73
2023/08/14 13:52:29;;;;;;;;;;;25.20;99.90;;;;;;6680194;88;20128;-73
2023/08/14 14:02:29;;;;;;;;;;;25.70;99.90;;;;;;6683049;88;20215;-73
2023/08/14 14:12:30;;;;;;;;;;;24.80;99.90;;;;;;6685334;88;20573;-73
2023/08/14 14:22:30;;;;;;;;;;;24.90;99.90;;;;;;6684256;88;20061;-73
2023/08/14 14:32:30;;;;;;;;;;;25.20;99.90;;;;;;6682781;88;20052;-74
2023/08/14 14:42:31;;;;;;;;;;;24.90;99.90;;;;;;6683715;88;20447;-74
2023/08/14 14:52:31;;;;;;;;;;;25.40;99.90;;;;;;6681371;88;20060;-74
2023/08/14 15:02:32;;;;;;;;;;;25.50;99.90;;;;;;6679307;88;20192;-73
2023/08/14 15:12:32;;;;;;;;;;;25.70;99.90;;;;;;6686565;88;20547;-74
2023/08/14 15:22:33;;;;;;;;;;;25.40;99.90;;;;;;6679916;88;20176;-74
2023/08/14 15:32:33;;;;;;;;;;;25.50;99.90;;;;;;6681801;88;20687;-74
2023/08/14 15:42:34;;;;;;;;;;;26.40;99.90;;;;;;6684616;88;20057;-74
2023/08/14 15:52:34;;;;;;;;;;;26.80;99.90;;;;;;6678695;88;20552;-74
2023/08/14 16:02:35;;;;;;;;;;;27.10;99.90;;;;;;6685792;77;20231;-73
2023/08/14 16:12:35;;;;;;;;;;;26.60;99.90;;;;;;6690078;88;20465;-73
2023/08/14 16:22:36;;;;;;;;;;;27.00;99.90;;;;;;6691201;88;20074;-74
2023/08/14 16:32:37;;;;;;;;;;;27.20;99.90;;;;;;6695028;88;20088;-73
2023/08/14 16:42:37;;;;;;;;;;;27.60;99.90;;;;;;6694193;88;20063;-73
2023/08/14 16:52:37;;;;;;;;;;;28.00;99.90;;;;;;6689217;88;20247;-74
2023/08/14 17:02:38;;;;;;;;;;;28.40;99.90;;;;;;6687117;88;20081;-74
2023/08/14 17:12:39;;;;;;;;;;;27.10;99.90;;;;;;6691516;88;20134;-75
2023/08/14 17:22:39;;;;;;;;;;;26.80;99.90;;;;;;6687789;88;20109;-75
2023/08/14 17:32:40;;;;;;;;;;;26.50;99.90;;;;;;6687158;88;20071;-74
2023/08/14 17:42:40;;;;;;;;;;;26.70;99.90;;;;;;6689777;88;20224;-73
2023/08/14 17:52:41;;;;;;;;;;;26.70;99.90;;;;;;6697600;88;20059;-74
2023/08/14 18:02:41;;;;;;;;;;;26.10;99.90;;;;;;6690728;88;20066;-73
2023/08/14 18:12:42;;;;;;;;;;;25.60;99.90;;;;;;6687810;85;28815;-73
2023/08/14 18:22:42;;;;;;;;;;;25.20;99.90;;;;;;6688375;88;20214;-73
2023/08/14 18:32:43;;;;;;;;;;;25.00;99.90;;;;;;6698144;88;20207;-73
2023/08/14 18:42:43;;;;;;;;;;;24.80;99.90;;;;;;6697159;88;20154;-72
2023/08/14 18:52:44;;;;;;;;;;;24.50;99.90;;;;;;6687389;88;20561;-73
2023/08/14 19:02:44;;;;;;;;;;;24.10;99.90;;;;;;6691313;88;20064;-73
2023/08/14 19:12:45;;;;;;;;;;;23.70;99.90;;;;;;6684952;88;20248;-72
2023/08/14 19:22:45;;;;;;;;;;;23.50;99.90;;;;;;6689154;88;20202;-72
2023/08/14 19:32:46;;;;;;;;;;;23.20;99.90;;;;;;6690197;88;20109;-72
2023/08/14 19:42:46;;;;;;;;;;;23.10;99.90;;;;;;6687832;88;20076;-73
2023/08/14 19:52:46;;;;;;;;;;;23.00;99.90;;;;;;6686345;88;20065;-72
2023/08/14 20:02:49;;;;;;;;;;;22.80;99.90;;;;;;6690538;88;20108;-73
2023/08/14 20:12:50;;;;;;;;;;;22.60;99.90;;;;;;6688953;88;20117;-73
2023/08/14 20:22:50;;;;;;;;;;;22.40;99.90;;;;;;6686592;88;20970;-73
2023/08/14 20:32:51;;;;;;;;;;;22.20;99.90;;;;;;6688135;88;20068;-73
2023/08/14 20:42:51;;;;;;;;;;;22.20;99.90;;;;;;6689649;88;20118;-73
2023/08/14 20:52:52;;;;;;;;;;;22.10;99.90;;;;;;6687192;88;20107;-73
2023/08/14 21:02:52;;;;;;;;;;;22.30;99.90;;;;;;6692031;88;20134;-74
2023/08/14 21:12:52;;;;;;;;;;;22.70;99.90;;;;;;6689784;88;20052;-73
2023/08/14 21:22:53;;;;;;;;;;;22.90;99.90;;;;;;6686436;88;20080;-74
2023/08/14 21:32:53;;;;;;;;;;;23.10;99.90;;;;;;6690254;88;20084;-73
2023/08/14 21:42:55;;;;;;;;;;;23.40;99.90;;;;;;6689627;88;20170;-73
2023/08/14 21:52:56;;;;;;;;;;;23.30;99.90;;;;;;6689790;88;20131;-73
2023/08/14 22:02:56;;;;;;;;;;;23.20;99.90;;;;;;6690248;88;20213;-74
2023/08/14 22:12:57;;;;;;;;;;;23.10;99.90;;;;;;6689362;88;20137;-74
2023/08/14 22:22:57;;;;;;;;;;;22.90;99.90;;;;;;6688268;88;20199;-74
2023/08/14 22:32:59;;;;;;;;;;;22.80;99.90;;;;;;6690536;88;20060;-74
2023/08/14 22:42:59;;;;;;;;;;;22.80;99.90;;;;;;6692783;88;20178;-74
2023/08/14 22:53:00;;;;;;;;;;;22.80;99.90;;;;;;6701510;88;20068;-73
2023/08/14 23:03:00;;;;;;;;;;;22.30;99.90;;;;;;6692423;88;20078;-74
2023/08/14 23:13:01;;;;;;;;;;;22.00;99.90;;;;;;6691207;88;20049;-74
2023/08/14 23:23:02;;;;;;;;;;;22.00;99.90;;;;;;6689234;88;20073;-75
2023/08/14 23:33:02;;;;;;;;;;;21.80;99.90;;;;;;6687635;88;20076;-74
2023/08/14 23:43:03;;;;;;;;;;;21.70;99.90;;;;;;6692729;88;20595;-73
2023/08/14 23:53:03;;;;;;;;;;;21.60;99.90;;;;;;6694673;88;20247;-74
